Time;durP1;ratioP1;P1;durP2;ratioP2;P2;SDS_P1;SDS_P2;PMS_P1;PMS_P2;Temp;Humidity;BMP_temperature;BMP_pressure;BME280_temperature;BME280_humidity;BME280_pressure;Samples;Min_cycle;Max_cycle;Signal;HPM_P1;HPM_P2
2022/02/08 00:01:12;;;;;;;14.30;2.40;;;;;;;-0.04;84.17;96883.09;5052113;28;20199;-77
2022/02/08 00:03:37;;;;;;;9.53;2.00;;;;;;;-0.02;84.40;96878.75;5050475;28;20183;-77
2022/02/08 00:08:47;;;;;;;11.30;2.40;;;;;;;0.05;84.09;96884.50;5067483;28;20190;-78
2022/02/08 00:11:12;;;;;;;7.63;1.77;;;;;;;0.08;83.92;96882.66;5050860;28;20623;-77
2022/02/08 00:13:38;;;;;;;7.67;2.00;;;;;;;0.10;84.25;96880.94;5052414;28;20216;-79
2022/02/08 00:16:03;;;;;;;6.20;3.00;;;;;;;0.10;84.22;96883.47;5072163;28;20177;-79
2022/02/08 00:18:29;;;;;;;6.13;1.60;;;;;;;0.19;84.12;96882.34;5055234;28;20546;-78
2022/02/08 00:20:54;;;;;;;8.30;2.17;;;;;;;0.16;83.79;96873.03;5072288;28;20222;-78
2022/02/08 00:23:19;;;;;;;14.23;2.17;;;;;;;0.18;84.17;96878.94;5070457;28;20182;-78
2022/02/08 00:25:45;;;;;;;9.47;1.57;;;;;;;0.22;83.81;96877.94;5070715;28;20196;-77
2022/02/08 00:28:10;;;;;;;10.73;2.30;;;;;;;0.27;83.79;96875.25;5053719;28;20177;-79
2022/02/08 00:30:35;;;;;;;6.53;1.93;;;;;;;0.30;83.81;96882.78;5070417;28;20201;-78
2022/02/08 00:33:00;;;;;;;7.20;2.23;;;;;;;0.32;83.64;96878.47;5053920;28;20192;-78
2022/02/08 00:35:26;;;;;;;6.47;1.57;;;;;;;0.36;83.70;96874.09;5053360;28;20773;-78
2022/02/08 00:37:51;;;;;;;5.13;1.30;;;;;;;0.38;83.59;96875.69;5053479;28;20199;-78
2022/02/08 00:40:18;;;;;;;6.10;1.80;;;;;;;0.40;83.38;96878.19;5070175;28;20205;-78
2022/02/08 00:42:44;;;;;;;8.03;1.43;;;;;;;0.42;83.95;96878.97;5069856;28;20173;-78
2022/02/08 00:45:31;;;;;;;5.37;1.70;;;;;;;0.38;84.13;96882.53;5070032;28;20181;-78
2022/02/08 00:48:08;;;;;;;10.73;2.60;;;;;;;0.40;84.12;96881.59;5070489;28;20176;-78
2022/02/08 00:50:34;;;;;;;10.30;1.90;;;;;;;0.37;84.21;96888.53;5069915;28;20212;-79
2022/02/08 00:52:59;;;;;;;10.53;1.47;;;;;;;0.40;84.34;96885.88;5049969;28;20192;-78
2022/02/08 00:55:24;;;;;;;7.77;1.63;;;;;;;0.43;84.26;96893.41;5064433;28;20170;-77
2022/02/08 00:57:49;;;;;;;9.17;1.80;;;;;;;0.44;84.50;96895.09;5063009;28;20188;-78
2022/02/08 01:00:15;;;;;;;11.17;2.70;;;;;;;0.42;84.76;96892.59;5064542;28;20193;-78
2022/02/08 01:02:41;;;;;;;6.23;1.63;;;;;;;0.37;84.80;96886.81;5046774;28;20183;-78
2022/02/08 01:05:09;;;;;;;4.50;1.70;;;;;;;0.37;85.23;96893.66;5046788;28;20181;-78
2022/02/08 01:07:35;;;;;;;8.40;2.03;;;;;;;0.33;85.41;96905.69;5047204;28;20181;-77
2022/02/08 01:10:01;;;;;;;7.97;1.67;;;;;;;0.28;86.15;96902.47;5063020;28;20661;-78
2022/02/08 01:12:30;;;;;;;10.37;1.83;;;;;;;0.27;86.43;96901.63;5045123;28;20600;-78
2022/02/08 01:14:57;;;;;;;9.63;1.80;;;;;;;0.30;86.32;96905.78;5046624;28;20659;-77
2022/02/08 01:17:24;;;;;;;11.40;2.13;;;;;;;0.35;86.29;96900.50;5046768;28;20184;-77
2022/02/08 01:19:56;;;;;;;9.23;2.03;;;;;;;0.42;85.98;96904.53;5046882;28;20197;-77
2022/02/08 01:22:21;;;;;;;6.77;1.50;;;;;;;0.43;86.00;96898.53;5041235;28;20189;-77
2022/02/08 01:24:48;;;;;;;8.47;1.90;;;;;;;0.42;86.26;96905.38;5059548;28;20205;-78
2022/02/08 01:27:15;;;;;;;11.63;2.07;;;;;;;0.51;85.99;96891.44;5049269;28;20467;-77
2022/02/08 01:29:52;;;;;;;10.57;2.43;;;;;;;0.54;85.90;96901.56;5063008;28;20686;-78
2022/02/08 01:35:27;;;;;;;8.80;1.80;;;;;;;0.48;86.31;96904.31;5063740;28;20177;-77
2022/02/08 01:37:46;;;;;;;9.23;1.57;;;;;;;0.44;86.21;96905.31;5062897;28;20181;-78
2022/02/08 01:45:44;;;;;;;11.47;1.70;;;;;;;0.39;86.47;96909.75;5042151;28;20163;-77
2022/02/08 01:48:16;;;;;;;5.00;2.47;;;;;;;0.37;86.81;96906.44;5044084;28;20177;-78
2022/02/08 01:50:42;;;;;;;8.73;1.53;;;;;;;0.42;86.53;96904.53;5042559;28;20517;-77
2022/02/08 01:53:08;;;;;;;10.17;1.90;;;;;;;0.38;86.47;96893.59;5041141;28;20181;-78
2022/02/08 01:55:34;;;;;;;9.73;1.60;;;;;;;0.39;86.48;96896.97;5041819;28;20586;-78
2022/02/08 01:58:01;;;;;;;6.07;1.67;;;;;;;0.38;86.59;96893.59;5041976;28;20734;-78
2022/02/08 02:00:27;;;;;;;6.63;1.50;;;;;;;0.45;86.33;96889.94;5026176;28;20213;-77
2022/02/08 02:02:53;;;;;;;10.23;2.27;;;;;;;0.41;86.60;96903.69;5042479;28;20181;-78
2022/02/08 02:05:18;;;;;;;10.63;1.70;;;;;;;0.42;86.23;96900.25;5025643;28;20177;-78
2022/02/08 02:07:48;;;;;;;6.20;1.70;;;;;;;0.39;86.26;96896.97;5025179;28;20182;-76
2022/02/08 02:10:18;;;;;;;6.83;1.60;;;;;;;0.46;85.96;96899.28;5041914;28;20204;-77
2022/02/08 02:12:54;;;;;;;8.10;1.80;;;;;;;0.49;85.52;96891.50;5039754;28;20212;-77
2022/02/08 02:15:20;;;;;;;5.60;2.00;;;;;;;0.48;85.59;96886.44;5044084;28;20189;-78
2022/02/08 02:17:46;;;;;;;12.27;2.47;;;;;;;0.44;85.72;96879.75;5045742;28;20186;-78
2022/02/08 02:20:11;;;;;;;7.77;2.03;;;;;;;0.37;85.94;96873.22;5062046;28;20671;-78
2022/02/08 02:22:37;;;;;;;11.57;2.07;;;;;;;0.32;86.45;96885.28;5044886;28;20204;-78
2022/02/08 02:25:02;;;;;;;11.23;2.30;;;;;;;0.33;86.38;96884.41;5061643;28;20174;-78
2022/02/08 02:27:27;;;;;;;8.77;2.13;;;;;;;0.26;86.62;96876.94;5063495;28;20240;-78
2022/02/08 02:29:53;;;;;;;7.43;1.80;;;;;;;0.20;86.76;96874.63;5061934;28;20201;-78
2022/02/08 02:32:18;;;;;;;9.93;1.77;;;;;;;0.13;87.40;96880.81;5061334;28;20194;-78
2022/02/08 02:34:48;;;;;;;7.43;1.80;;;;;;;0.18;86.63;96881.50;5062866;28;20176;-76
2022/02/08 02:37:13;;;;;;;11.93;2.03;;;;;;;0.18;87.34;96888.34;5046029;28;20178;-78
2022/02/08 02:39:39;;;;;;;8.67;1.40;;;;;;;0.14;87.35;96886.75;5051172;28;20231;-79
2022/02/08 02:42:12;;;;;;;9.47;2.03;;;;;;;0.18;87.26;96878.13;5067795;28;20255;-77
2022/02/08 02:44:38;;;;;;;10.03;2.80;;;;;;;0.16;87.30;96882.41;5050772;28;20212;-78
2022/02/08 02:47:04;;;;;;;7.73;2.00;;;;;;;0.13;87.14;96883.38;5065816;28;20174;-78
2022/02/08 02:49:29;;;;;;;10.00;1.80;;;;;;;0.11;87.53;96887.69;5066928;28;20177;-79
2022/02/08 02:51:54;;;;;;;11.57;1.83;;;;;;;0.13;87.51;96885.91;5045528;28;20225;-77
2022/02/08 02:54:20;;;;;;;5.97;1.60;;;;;;;0.12;87.71;96886.81;5044506;28;20192;-78
2022/02/08 02:56:47;;;;;;;7.33;2.10;;;;;;;0.17;87.44;96886.63;5061106;28;20196;-78
2022/02/08 02:59:13;;;;;;;9.00;2.10;;;;;;;0.11;87.70;96877.47;5060676;28;20217;-77
2022/02/08 03:02:10;;;;;;;5.93;1.60;;;;;;;0.14;87.75;96879.91;5060323;28;20193;-77
2022/02/08 03:18:11;;;;;;;8.40;2.00;;;;;;;0.16;88.40;96874.75;5062299;28;20193;-77
2022/02/08 03:20:37;;;;;;;6.90;1.73;;;;;;;0.14;88.60;96881.66;5046762;28;20211;-78
2022/02/08 03:23:02;;;;;;;9.87;1.97;;;;;;;0.18;88.61;96878.94;5044264;28;20189;-80
2022/02/08 03:25:28;;;;;;;8.33;2.07;;;;;;;0.20;88.36;96884.00;5061407;28;20189;-78
2022/02/08 03:27:53;;;;;;;7.47;2.07;;;;;;;0.24;88.47;96890.66;5061559;28;20700;-78
2022/02/08 03:30:18;;;;;;;8.70;2.10;;;;;;;0.30;88.50;96889.63;5043622;28;20207;-78
2022/02/08 03:32:44;;;;;;;7.77;1.90;;;;;;;0.38;88.21;96892.75;5043387;28;20208;-76
2022/02/08 03:35:11;;;;;;;10.00;1.90;;;;;;;0.44;87.77;96897.63;5044093;28;20242;-77
2022/02/08 03:37:36;;;;;;;9.53;2.23;;;;;;;0.45;88.08;96896.78;5060531;28;20201;-78
2022/02/08 03:40:24;;;;;;;6.47;1.83;;;;;;;0.47;88.22;96895.00;5060503;28;20201;-77
2022/02/08 03:42:59;;;;;;;6.07;1.70;;;;;;;0.51;87.51;96893.97;5046267;28;20181;-77
2022/02/08 03:45:25;;;;;;;8.47;2.10;;;;;;;0.63;86.73;96892.75;5060839;28;20184;-78
2022/02/08 03:47:50;;;;;;;12.67;2.53;;;;;;;0.68;86.28;96891.66;5060537;28;20177;-78
2022/02/08 03:50:15;;;;;;;9.37;1.97;;;;;;;0.68;86.75;96888.28;5061176;28;20216;-79
2022/02/08 03:52:40;;;;;;;7.83;1.97;;;;;;;0.62;86.44;96891.03;5046639;28;20213;-79
2022/02/08 03:55:07;;;;;;;10.40;1.97;;;;;;;0.65;86.28;96889.22;5065880;28;20567;-77
2022/02/08 03:57:32;;;;;;;7.13;1.90;;;;;;;0.67;86.29;96890.00;5060436;28;20603;-77
2022/02/08 03:59:57;;;;;;;10.70;1.57;;;;;;;0.69;86.65;96892.50;5060159;28;20198;-77
2022/02/08 04:05:09;;;;;;;6.27;1.90;;;;;;;0.80;85.81;96896.38;5061656;28;20189;-79
2022/02/08 04:07:40;;;;;;;6.70;1.90;;;;;;;0.82;85.89;96886.06;5064061;28;20192;-77
2022/02/08 04:10:07;;;;;;;9.97;1.70;;;;;;;0.87;85.79;96896.13;5061509;28;20259;-78
2022/02/08 04:12:52;;;;;;;8.90;2.10;;;;;;;0.95;85.41;96899.22;5059669;28;20694;-78
2022/02/08 04:16:06;;;;;;;10.03;2.03;;;;;;;0.91;85.58;96897.69;5061386;28;20650;-77
2022/02/08 04:32:15;;;;;;;6.13;2.20;;;;;;;1.16;85.00;96908.69;5060828;28;20216;-77
2022/02/08 04:48:10;;;;;;;5.93;1.63;;;;;;;1.34;86.24;96914.84;5044554;28;20174;-78
2022/02/08 04:50:37;;;;;;;12.03;2.63;;;;;;;1.42;86.54;96920.50;5026866;28;20236;-78
2022/02/08 04:53:12;;;;;;;15.70;2.30;;;;;;;1.40;86.70;96914.59;5005750;28;20187;-78
2022/02/08 05:01:21;;;;;;;13.37;2.60;;;;;;;1.45;86.75;96901.63;4987153;28;20220;-78
2022/02/08 05:44:30;;;;;;;13.07;3.07;;;;;;;0.89;91.32;96887.53;5043124;28;20203;-79
2022/02/08 05:46:54;;;;;;;8.10;2.30;;;;;;;0.82;91.64;96899.69;5042840;28;20664;-79
2022/02/08 05:50:06;;;;;;;9.10;2.40;;;;;;;0.82;91.76;96891.19;5043855;28;20179;-80
2022/02/08 05:54:38;;;;;;;6.27;1.73;;;;;;;0.83;91.59;96896.25;5042918;28;20567;-78
2022/02/08 05:57:03;;;;;;;8.97;2.30;;;;;;;0.78;92.19;96898.13;5044607;28;20183;-79
2022/02/08 05:59:29;;;;;;;10.90;2.80;;;;;;;0.81;92.44;96899.75;5058411;28;20644;-78
2022/02/08 06:01:54;;;;;;;14.30;3.07;;;;;;;0.76;92.73;96894.78;5040003;28;20193;-78
2022/02/08 06:04:19;;;;;;;11.43;2.70;;;;;;;0.81;92.67;96895.47;5054818;28;20182;-79
2022/02/08 06:06:45;;;;;;;10.67;2.50;;;;;;;0.86;92.92;96892.72;5039204;28;20217;-78
2022/02/08 06:09:11;;;;;;;12.90;2.70;;;;;;;0.89;92.83;96902.88;5039580;28;20182;-80
2022/02/08 06:11:38;;;;;;;8.60;3.30;;;;;;;0.89;92.93;96904.59;5039885;28;20208;-80
2022/02/08 06:14:04;;;;;;;10.73;2.60;;;;;;;0.92;92.74;96901.91;5039226;28;20186;-79
2022/02/08 06:16:30;;;;;;;5.67;2.03;;;;;;;0.96;92.66;96903.47;5039820;28;20272;-80
2022/02/08 06:18:55;;;;;;;9.30;2.13;;;;;;;0.95;92.51;96906.91;5050165;28;20216;-79
2022/02/08 06:21:21;;;;;;;10.30;2.20;;;;;;;0.97;92.71;96903.44;5055433;28;20210;-79
2022/02/08 06:23:47;;;;;;;10.43;2.50;;;;;;;1.08;91.82;96908.97;5043485;28;20197;-81
2022/02/08 06:26:14;;;;;;;11.07;2.50;;;;;;;1.08;91.81;96905.59;5055874;28;20188;-80
2022/02/08 06:28:39;;;;;;;6.87;2.70;;;;;;;1.09;92.26;96909.81;5057696;28;20237;-79
2022/02/08 06:31:04;;;;;;;10.37;2.30;;;;;;;1.07;91.91;96902.19;5040959;28;20213;-79
2022/02/08 06:33:30;;;;;;;6.57;2.17;;;;;;;1.07;91.88;96907.31;5036435;28;20274;-78
2022/02/08 06:35:55;;;;;;;9.87;2.40;;;;;;;1.10;91.59;96903.78;5044248;28;20181;-78
2022/02/08 06:38:20;;;;;;;12.70;2.80;;;;;;;1.07;91.47;96893.69;5054923;28;20181;-79
2022/02/08 06:40:52;;;;;;;11.17;3.03;;;;;;;1.09;91.48;96894.47;5044782;28;20247;-79
2022/02/08 06:43:19;;;;;;;11.17;2.80;;;;;;;1.12;91.38;96899.44;5024114;28;20243;-78
2022/02/08 06:45:44;;;;;;;13.90;2.63;;;;;;;1.19;91.56;96894.94;5039774;28;20603;-79
2022/02/08 06:48:10;;;;;;;11.77;2.80;;;;;;;1.20;91.69;96900.00;5043546;28;20174;-79
2022/02/08 06:50:36;;;;;;;15.80;2.37;;;;;;;1.23;92.08;96896.47;5047151;28;20218;-78
2022/02/08 06:53:01;;;;;;;8.30;2.60;;;;;;;1.31;91.61;96881.66;5058973;28;20178;-78
2022/02/08 06:55:28;;;;;;;11.50;2.77;;;;;;;1.26;91.76;96889.53;5025983;28;20212;-79
2022/02/08 06:58:06;;;;;;;6.20;2.10;;;;;;;1.23;92.03;96881.97;5060037;28;20182;-79
2022/02/08 07:00:38;;;;;;;10.30;2.80;;;;;;;1.27;92.27;96901.44;5039866;28;20227;-80
2022/02/08 07:03:05;;;;;;;16.17;3.43;;;;;;;1.35;92.36;96903.72;5041317;28;20838;-80
2022/02/08 07:05:30;;;;;;;10.27;2.60;;;;;;;1.42;92.39;96911.09;5041121;28;20198;-80
2022/02/08 07:07:56;;;;;;;10.87;2.63;;;;;;;1.48;92.13;96909.19;5052245;28;20193;-79
2022/02/08 07:10:21;;;;;;;9.67;2.60;;;;;;;1.48;92.61;96906.63;5040095;28;20198;-81
2022/02/08 07:12:46;;;;;;;23.83;9.57;;;;;;;1.53;92.07;96902.16;5038310;28;20259;-81
2022/02/08 07:15:14;;;;;;;9.50;3.60;;;;;;;1.50;92.16;96904.81;5038514;28;20189;-80
2022/02/08 07:17:40;;;;;;;21.10;5.50;;;;;;;1.52;92.47;96913.31;5033812;28;20218;-81
2022/02/08 07:20:06;;;;;;;14.63;3.93;;;;;;;1.58;92.39;96916.44;5018664;28;20205;-80
2022/02/08 07:22:31;;;;;;;13.50;2.50;;;;;;;1.56;92.43;96922.53;5038731;28;20648;-80
2022/02/08 07:24:58;;;;;;;7.40;2.23;;;;;;;1.65;92.68;96927.28;5038356;28;20197;-78
2022/02/08 07:27:24;;;;;;;6.97;3.13;;;;;;;1.68;92.06;96922.91;5055166;28;20184;-79
2022/02/08 07:29:52;;;;;;;16.00;3.80;;;;;;;1.73;92.16;96927.00;5056928;28;20244;-80
2022/02/08 07:32:19;;;;;;;9.87;2.80;;;;;;;1.81;92.39;96928.34;5032644;28;20203;-78
2022/02/08 07:34:51;;;;;;;6.97;3.17;;;;;;;1.80;92.13;96925.88;5033278;28;20554;-78
2022/02/08 07:37:33;;;;;;;7.17;2.20;;;;;;;1.92;91.73;96907.44;5018452;28;20301;-78
2022/02/08 07:40:03;;;;;;;10.33;2.90;;;;;;;2.04;90.83;96908.69;5048613;28;20205;-80
2022/02/08 07:42:29;;;;;;;7.77;2.40;;;;;;;2.03;91.14;96900.13;5037640;28;20196;-79
2022/02/08 07:44:54;;;;;;;13.83;2.40;;;;;;;2.12;90.24;96901.50;5054556;28;20647;-79
2022/02/08 07:47:19;;;;;;;12.30;2.40;;;;;;;2.08;90.62;96897.41;5053011;28;20181;-79
2022/02/08 07:49:45;;;;;;;10.50;2.33;;;;;;;2.17;90.15;96904.72;5036471;28;20263;-79
2022/02/08 07:52:10;;;;;;;11.77;3.03;;;;;;;2.30;90.03;96912.72;5053330;28;20206;-79
2022/02/08 07:54:35;;;;;;;8.03;2.13;;;;;;;2.41;89.34;96913.94;5053054;28;20182;-79
2022/02/08 07:57:01;;;;;;;9.53;1.80;;;;;;;2.41;89.11;96913.13;5036888;28;20235;-79
2022/02/08 07:59:26;;;;;;;9.63;2.17;;;;;;;2.45;89.36;96915.47;5034962;28;20220;-79
2022/02/08 08:01:52;;;;;;;8.43;2.07;;;;;;;2.46;88.61;96924.00;5051470;28;20178;-78
2022/02/08 08:04:17;;;;;;;12.93;2.13;;;;;;;2.46;89.25;96926.56;5052255;28;20204;-79
2022/02/08 08:06:42;;;;;;;7.43;2.00;;;;;;;2.50;88.93;96925.56;5036626;28;20189;-78
2022/02/08 08:09:08;;;;;;;9.17;2.40;;;;;;;2.57;88.36;96923.56;5054120;28;20177;-78
2022/02/08 08:11:38;;;;;;;9.30;1.60;;;;;;;2.67;87.72;96922.28;5052044;28;20198;-79
2022/02/08 08:14:06;;;;;;;6.63;1.97;;;;;;;2.72;87.60;96915.19;5036623;28;20180;-79
2022/02/08 08:16:49;;;;;;;6.83;1.97;;;;;;;2.84;87.17;96924.94;5036704;28;20614;-79
2022/02/08 08:21:40;;;;;;;8.73;2.60;;;;;;;3.00;86.38;96923.34;5052307;28;20248;-78
2022/02/08 08:24:06;;;;;;;6.90;1.90;;;;;;;2.96;86.54;96911.56;5052267;28;20206;-78
2022/02/08 08:26:32;;;;;;;9.03;1.93;;;;;;;3.03;86.43;96912.97;5035699;28;20182;-78
2022/02/08 08:28:57;;;;;;;10.43;3.00;;;;;;;2.94;86.11;96910.81;5035036;28;20182;-77
2022/02/08 08:31:23;;;;;;;14.63;2.73;;;;;;;3.11;85.26;96910.06;5051135;28;20619;-77
2022/02/08 08:33:48;;;;;;;13.60;2.47;;;;;;;3.11;85.47;96908.31;5039071;28;20526;-78
2022/02/08 08:36:16;;;;;;;8.40;2.07;;;;;;;3.07;85.93;96904.22;5057224;28;20676;-78
2022/02/08 08:38:42;;;;;;;6.33;1.87;;;;;;;3.14;85.06;96909.91;5039976;28;20189;-78
2022/02/08 08:52:17;;;;;;;6.20;2.07;;;;;;;3.51;83.87;96905.66;5034396;28;20218;-81
2022/02/08 08:54:42;;;;;;;7.23;3.03;;;;;;;3.67;83.83;96915.13;5005705;28;20217;-77
2022/02/08 08:57:07;;;;;;;6.87;2.60;;;;;;;3.82;82.90;96913.59;5019577;28;20355;-80
2022/02/08 08:59:33;;;;;;;7.60;2.07;;;;;;;3.90;82.10;96919.22;5017932;28;20574;-80
2022/02/08 09:01:58;;;;;;;7.93;2.77;;;;;;;4.14;81.79;96919.72;5035913;28;20204;-81
2022/02/08 09:04:29;;;;;;;11.03;2.70;;;;;;;4.25;81.20;96924.38;5019439;28;20387;-79
2022/02/08 09:06:54;;;;;;;10.60;3.07;;;;;;;4.28;80.74;96915.66;5029970;28;20197;-81
2022/02/08 09:09:24;;;;;;;9.50;2.40;;;;;;;4.50;80.23;96914.50;5014481;28;20190;-79
2022/02/08 09:14:15;;;;;;;8.27;1.77;;;;;;;4.37;80.13;96913.47;5023514;28;20187;-79
2022/02/08 09:17:02;;;;;;;8.50;3.00;;;;;;;4.46;80.49;96901.91;5002316;28;20302;-79
2022/02/08 09:27:44;;;;;;;6.67;1.60;;;;;;;4.63;79.54;96903.63;5056257;28;20182;-80
2022/02/08 09:30:10;;;;;;;5.33;1.70;;;;;;;4.73;79.20;96900.50;5056427;28;20616;-79
2022/02/08 09:32:43;;;;;;;7.37;1.90;;;;;;;4.91;79.13;96896.13;5039056;28;20619;-79
2022/02/08 09:35:09;;;;;;;9.27;1.70;;;;;;;4.84;79.43;96895.59;5040313;28;20184;-79
2022/02/08 09:37:35;;;;;;;5.30;1.70;;;;;;;4.86;79.74;96881.81;5055376;28;20186;-78
2022/02/08 09:40:01;;;;;;;7.17;1.80;;;;;;;4.95;79.50;96892.50;5054770;28;20203;-79
2022/02/08 09:42:27;;;;;;;5.93;1.80;;;;;;;4.93;79.34;96878.03;5055530;28;20173;-80
2022/02/08 09:44:56;;;;;;;5.97;1.30;;;;;;;4.87;79.46;96889.50;5036389;28;20744;-80
2022/02/08 09:47:32;;;;;;;6.43;2.10;;;;;;;4.94;79.18;96897.69;5055413;28;20170;-81
2022/02/08 09:50:06;;;;;;;7.47;1.97;;;;;;;5.15;78.99;96904.31;5053997;28;20198;-80
2022/02/08 09:52:32;;;;;;;5.17;1.40;;;;;;;5.31;78.19;96905.16;5041894;28;20529;-79
2022/02/08 09:54:57;;;;;;;7.33;1.77;;;;;;;5.55;77.44;96905.56;5020561;28;20263;-79
2022/02/08 09:57:22;;;;;;;5.13;1.37;;;;;;;5.67;78.00;96906.66;5028642;28;20557;-80
2022/02/08 09:59:48;;;;;;;5.17;1.00;;;;;;;5.84;77.95;96905.72;5019461;28;20213;-79
2022/02/08 10:02:18;;;;;;;3.67;1.10;;;;;;;5.95;77.74;96909.38;5033720;28;20631;-80
2022/02/08 10:04:43;;;;;;;6.73;1.40;;;;;;;6.03;77.04;96901.22;5029887;28;20174;-78
2022/02/08 10:07:10;;;;;;;6.43;1.80;;;;;;;6.04;77.01;96913.19;5024536;28;20251;-76
2022/02/08 10:09:35;;;;;;;7.70;1.47;;;;;;;5.94;77.06;96924.94;5024259;28;20581;-80
2022/02/08 10:12:01;;;;;;;5.13;1.13;;;;;;;5.97;77.18;96922.19;5022379;28;20203;-79
2022/02/08 10:14:51;;;;;;;4.83;1.30;;;;;;;5.86;77.59;96934.81;5049319;28;20186;-80
2022/02/08 10:21:07;;;;;;;4.57;1.10;;;;;;;5.39;79.89;96936.50;5052180;28;20201;-80
2022/02/08 10:22:59;;;;;;;6.07;1.50;;;;;;;5.44;79.80;96941.38;5041282;28;20188;-80
2022/02/08 10:28:17;;;;;;;6.87;1.50;;;;;;;5.57;80.33;96945.00;5052030;28;20189;-80
2022/02/08 10:31:07;;;;;;;5.83;1.47;;;;;;;5.61;80.04;96937.91;5051641;28;20190;-79
2022/02/08 10:39:02;;;;;;;10.80;1.90;;;;;;;6.35;77.81;96922.59;5051585;28;20224;-79
2022/02/08 10:41:28;;;;;;;4.53;1.33;;;;;;;6.40;77.56;96930.06;5051047;28;20200;-76
2022/02/08 10:44:04;;;;;;;21.63;2.47;;;;;;;6.44;77.13;96932.38;5051425;28;20639;-77
2022/02/08 10:46:31;;;;;;;11.43;1.60;;;;;;;6.47;76.17;96933.97;5035047;28;20261;-80
2022/02/08 10:49:09;;;;;;;11.60;1.33;;;;;;;6.45;75.81;96938.41;5051846;28;20184;-80
2022/02/08 10:51:45;;;;;;;6.07;1.27;;;;;;;6.39;76.37;96939.56;5050735;28;20215;-78
2022/02/08 10:54:19;;;;;;;4.17;1.20;;;;;;;6.40;76.07;96943.81;5040031;28;20265;-78
2022/02/08 10:56:49;;;;;;;5.27;1.40;;;;;;;6.41;75.08;96939.47;5035525;28;20176;-79
2022/02/08 10:59:21;;;;;;;5.63;1.80;;;;;;;6.28;75.03;96941.94;5036391;28;20178;-78
2022/02/08 11:01:56;;;;;;;6.70;1.80;;;;;;;6.33;75.54;96936.50;5036210;28;20169;-78
2022/02/08 11:04:42;;;;;;;7.43;1.47;;;;;;;6.51;75.39;96941.44;5038776;28;20187;-79
2022/02/08 11:07:12;;;;;;;4.90;1.57;;;;;;;6.39;74.94;96936.16;5039269;28;20202;-80
2022/02/08 11:09:55;;;;;;;6.63;2.20;;;;;;;6.70;74.93;96941.19;5049940;28;20175;-79
2022/02/08 11:13:05;;;;;;;6.60;1.60;;;;;;;6.69;74.85;96939.53;5033440;28;20202;-79
2022/02/08 11:18:29;;;;;;;12.23;2.80;;;;;;;6.97;72.66;96932.75;5050914;28;20182;-78
2022/02/08 11:21:27;;;;;;;4.20;1.40;;;;;;;7.42;71.27;96942.06;5035685;28;20201;-79
2022/02/08 11:26:30;;;;;;;5.23;1.20;;;;;;;7.12;71.27;96936.16;5051341;28;20224;-78
2022/02/08 11:28:56;;;;;;;4.90;1.63;;;;;;;7.15;71.14;96930.78;5033702;28;20174;-78
2022/02/08 11:31:29;;;;;;;5.17;1.50;;;;;;;7.04;71.25;96923.69;5024478;28;21496;-79
2022/02/08 11:44:51;;;;;;;2.30;0.90;;;;;;;7.10;72.56;96923.34;5044136;28;20179;-78
2022/02/08 11:50:05;;;;;;;5.07;1.50;;;;;;;7.14;72.48;96922.22;5043333;28;20676;-78
2022/02/08 11:55:27;;;;;;;3.60;1.30;;;;;;;7.32;72.11;96922.84;5050138;28;20610;-79
2022/02/08 11:58:11;;;;;;;9.30;1.87;;;;;;;7.28;72.60;96921.41;5050178;28;20182;-78
2022/02/08 12:00:40;;;;;;;9.33;1.57;;;;;;;7.54;71.15;96920.63;5048437;28;20197;-77
2022/02/08 12:06:01;;;;;;;5.70;1.47;;;;;;;7.52;71.44;96924.22;5049587;28;20261;-78
2022/02/08 12:08:26;;;;;;;5.77;1.40;;;;;;;7.75;70.62;96925.38;5016111;28;20182;-78
2022/02/08 12:11:09;;;;;;;6.33;1.40;;;;;;;7.70;70.88;96917.91;5040109;28;20206;-78
2022/02/08 12:35:43;;;;;;;5.77;2.20;;;;;;;7.49;71.85;96898.56;5050349;28;20181;-80
2022/02/08 12:57:45;;;;;;;8.90;1.43;;;;;;;7.39;71.97;96908.63;5035450;28;20196;-80
2022/02/08 13:15:12;;;;;;;5.60;2.07;;;;;;;7.35;72.79;96881.34;5044974;28;20193;-78
2022/02/08 13:18:21;;;;;;;3.70;1.20;;;;;;;7.02;73.73;96889.41;5046515;28;20177;-80
2022/02/08 14:04:06;;;;;;;3.43;1.63;;;;;;;7.18;76.16;96863.47;5051458;28;20216;-79
2022/02/08 14:06:30;;;;;;;6.33;1.40;;;;;;;7.42;75.68;96859.38;5044978;28;20205;-80
2022/02/08 14:20:17;;;;;;;3.73;1.10;;;;;;;6.98;76.88;96857.78;5055784;28;20299;-78
2022/02/08 14:23:06;;;;;;;7.70;1.40;;;;;;;7.12;76.84;96858.66;5055915;28;20656;-78
2022/02/08 14:25:44;;;;;;;3.90;1.60;;;;;;;7.33;76.40;96852.16;5047223;28;20177;-77
2022/02/08 14:31:04;;;;;;;5.70;0.97;;;;;;;6.87;76.99;96844.66;5035029;28;20217;-79
2022/02/08 14:36:07;;;;;;;4.03;1.00;;;;;;;6.94;77.71;96845.94;5053131;28;20174;-79
2022/02/08 14:57:37;;;;;;;5.13;1.33;;;;;;;6.66;79.54;96835.63;5050874;28;20196;-79
2022/02/08 14:58:16;;;;;;;1.97;1.20;;;;;;;6.70;79.73;96839.69;5052720;28;20182;-81
2022/02/08 15:05:25;;;;;;;5.87;1.80;;;;;;;6.59;80.19;96835.16;5054636;28;20210;-81
2022/02/08 15:06:30;;;;;;;4.33;1.27;;;;;;;6.44;80.82;96842.06;5051178;28;20663;-80
2022/02/08 15:08:53;;;;;;;5.20;1.60;;;;;;;6.28;81.80;96840.50;5044870;28;20189;-78
2022/02/08 15:11:18;;;;;;;3.97;1.30;;;;;;;6.19;81.80;96847.84;5035216;28;20217;-79
2022/02/08 15:13:47;;;;;;;8.83;3.70;;;;;;;6.03;83.41;96844.50;5052248;28;20182;-80
2022/02/08 15:18:41;;;;;;;9.73;2.57;;;;;;;5.94;84.41;96845.84;5052594;28;20181;-80
2022/02/08 15:21:11;;;;;;;76.63;8.67;;;;;;;6.00;84.30;96854.13;5034957;28;20198;-79
2022/02/08 15:23:36;;;;;;;5.67;3.20;;;;;;;5.89;84.66;96859.88;5036444;28;20790;-78
2022/02/08 15:26:03;;;;;;;6.23;1.50;;;;;;;5.75;85.63;96850.38;5033976;28;20185;-79
2022/02/08 15:28:29;;;;;;;7.53;2.67;;;;;;;5.82;85.59;96849.06;5034388;28;20270;-79
2022/02/08 15:31:00;;;;;;;5.13;2.33;;;;;;;5.98;85.10;96846.50;5035882;28;20217;-82
2022/02/08 15:33:26;;;;;;;7.03;4.23;;;;;;;5.94;86.10;96848.44;5052331;28;20185;-79
2022/02/08 15:35:53;;;;;;;9.23;5.10;;;;;;;5.83;85.97;96850.75;5036029;28;20221;-79
2022/02/08 15:38:18;;;;;;;9.93;2.93;;;;;;;5.75;86.10;96847.78;5035609;28;20182;-78
2022/02/08 15:40:45;;;;;;;7.23;3.23;;;;;;;5.66;87.14;96845.72;5035533;28;20201;-83
2022/02/08 15:43:10;;;;;;;9.77;2.50;;;;;;;5.52;88.20;96851.63;5050826;28;20252;-79
2022/02/08 15:45:51;;;;;;;10.07;1.83;;;;;;;5.46;88.98;96854.53;5052787;28;20190;-79
2022/02/08 15:48:21;;;;;;;4.90;1.30;;;;;;;5.42;88.74;96854.81;5041151;28;20190;-84
2022/02/08 15:51:13;;;;;;;4.07;1.50;;;;;;;5.49;88.89;96856.13;5019153;28;20557;-78
2022/02/08 16:07:05;;;;;;;9.50;2.73;;;;;;;5.33;89.97;96856.97;5045852;28;20247;-79
2022/02/08 16:09:52;;;;;;;7.83;1.90;;;;;;;5.29;90.13;96860.59;5052895;28;20253;-79
2022/02/08 16:12:36;;;;;;;7.97;2.20;;;;;;;5.31;89.83;96857.97;5051755;28;20270;-79
2022/02/08 16:15:29;;;;;;;7.77;1.83;;;;;;;5.33;89.79;96861.28;5037984;28;20189;-79
2022/02/08 16:20:56;;;;;;;7.17;1.70;;;;;;;5.21;89.93;96862.78;5053004;28;20225;-79
2022/02/08 16:26:28;;;;;;;5.90;2.17;;;;;;;5.19;90.45;96869.75;5044821;28;20529;-80
2022/02/08 16:29:34;;;;;;;5.70;1.97;;;;;;;5.21;90.05;96867.94;5052427;28;20183;-80
2022/02/08 16:59:32;;;;;;;7.23;4.10;;;;;;;5.19;89.30;96881.78;5058873;28;20623;-78
2022/02/08 17:02:01;;;;;;;21.93;13.10;;;;;;;5.29;88.55;96888.94;5057804;28;20177;-78
2022/02/08 17:04:26;;;;;;;11.73;6.07;;;;;;;5.31;88.15;96889.72;5057706;28;20237;-79
2022/02/08 17:06:52;;;;;;;7.43;3.30;;;;;;;5.30;87.86;96890.63;5041769;28;20259;-80
2022/02/08 17:09:29;;;;;;;7.70;2.90;;;;;;;5.30;87.87;96884.63;5042365;28;20328;-79
2022/02/08 17:12:16;;;;;;;8.03;3.83;;;;;;;5.27;87.77;96888.19;5043550;28;20552;-79
2022/02/08 17:17:42;;;;;;;11.03;3.83;;;;;;;5.22;86.51;96871.34;5058557;28;20234;-80
2022/02/08 17:45:19;;;;;;;9.23;3.40;;;;;;;5.26;86.35;96881.38;5058990;28;20209;-80
2022/02/08 17:47:46;;;;;;;12.30;5.23;;;;;;;5.28;86.75;96881.31;5059533;28;20189;-80
2022/02/08 17:50:14;;;;;;;8.73;4.63;;;;;;;5.29;86.65;96885.53;5057164;28;20269;-79
2022/02/08 17:52:40;;;;;;;9.13;2.60;;;;;;;5.27;86.58;96883.03;5055223;28;20210;-79
2022/02/08 17:55:07;;;;;;;4.63;2.33;;;;;;;5.23;87.36;96876.41;5042279;28;20182;-79
2022/02/08 17:57:33;;;;;;;6.53;2.50;;;;;;;5.24;86.83;96878.06;5025591;28;20212;-79
2022/02/08 17:59:59;;;;;;;4.40;2.30;;;;;;;5.25;86.61;96877.16;5038129;28;20691;-79
2022/02/08 18:02:24;;;;;;;7.03;3.13;;;;;;;5.28;86.58;96876.97;5042346;28;20182;-79
2022/02/08 18:04:53;;;;;;;6.87;2.83;;;;;;;5.27;86.95;96880.47;5029335;28;20338;-79
2022/02/08 18:07:21;;;;;;;8.10;2.90;;;;;;;5.22;87.04;96885.06;5058182;28;20215;-79